createdAt,value
2023-02-27T00:01:54.164Z,100329.44
2023-02-27T00:04:20.748Z,100345.09
2023-02-27T00:06:47.345Z,100343.22
2023-02-27T00:09:14.014Z,100352.81
2023-02-27T00:11:40.665Z,100348.34
2023-02-27T00:14:07.294Z,100351.09
2023-02-27T00:16:34.436Z,100350.19
2023-02-27T00:19:04.568Z,100361.88
2023-02-27T00:21:32.505Z,100367.59
2023-02-27T00:23:59.355Z,100369.13
2023-02-27T00:26:26.487Z,100358.25
2023-02-27T00:28:53.048Z,100366.19
2023-02-27T00:31:19.681Z,100359.72
2023-02-27T00:33:46.293Z,100367.25
2023-02-27T00:36:13.127Z,100372.97
2023-02-27T00:38:39.738Z,100378.38
2023-02-27T00:41:06.394Z,100377.62
2023-02-27T00:43:32.984Z,100376.34
2023-02-27T00:45:59.567Z,100380.88
2023-02-27T00:48:26.212Z,100381.81
2023-02-27T00:50:52.787Z,100379.75
2023-02-27T00:53:19.474Z,100381.34
2023-02-27T00:55:46.104Z,100390.06
2023-02-27T00:58:12.719Z,100378.44
2023-02-27T01:00:39.506Z,100385.44
2023-02-27T01:03:06.100Z,100394.81
2023-02-27T01:05:32.784Z,100400.75
2023-02-27T01:07:59.633Z,100399.50
2023-02-27T01:10:26.274Z,100400.88
2023-02-27T01:12:52.872Z,100400.38
2023-02-27T01:15:19.541Z,100406.22
2023-02-27T01:17:48.019Z,100405.16
2023-02-27T01:20:15.533Z,100396.56
2023-02-27T01:22:42.339Z,100395.75
2023-02-27T01:25:09.922Z,100400.66
2023-02-27T01:27:36.638Z,100394.75
2023-02-27T01:30:04.008Z,100393.03
2023-02-27T01:32:30.681Z,100398.03
2023-02-27T01:34:57.346Z,100406.94
2023-02-27T01:37:23.951Z,100401.03
2023-02-27T01:39:50.630Z,100396.75
2023-02-27T01:42:26.886Z,100397.88
2023-02-27T01:45:12.133Z,100401.56
2023-02-27T01:47:45.373Z,100404.69
2023-02-27T01:50:14.484Z,100409.66
2023-02-27T01:52:44.066Z,100410.91
2023-02-27T01:55:13.409Z,100413.06
2023-02-27T01:57:43.111Z,100406.31
2023-02-27T02:00:10.534Z,100412.81
2023-02-27T02:02:40.831Z,100422.34
2023-02-27T02:05:08.727Z,100426.25
2023-02-27T02:07:38.627Z,100428.69
2023-02-27T02:10:06.436Z,100425.47
2023-02-27T02:12:36.724Z,100424.13
2023-02-27T02:15:04.623Z,100435.69
2023-02-27T02:17:49.480Z,100439.09
2023-02-27T02:20:35.431Z,100448.09
2023-02-27T02:23:01.992Z,100446.50
2023-02-27T02:25:37.738Z,100445.97
2023-02-27T02:28:13.633Z,100456.47
2023-02-27T02:30:58.464Z,100457.00
2023-02-27T02:33:33.908Z,100451.63
2023-02-27T02:36:19.267Z,100456.75
2023-02-27T02:39:10.158Z,100458.53
2023-02-27T02:41:52.204Z,100462.56
2023-02-27T02:44:37.577Z,100458.25
2023-02-27T02:47:21.622Z,100463.78
2023-02-27T02:50:11.565Z,100464.69
2023-02-27T02:52:54.559Z,100465.41
2023-02-27T02:55:26.693Z,100467.25
2023-02-27T02:58:04.183Z,100472.81
2023-02-27T03:00:47.466Z,100481.94
2023-02-27T03:03:37.114Z,100468.88
2023-02-27T03:06:29.610Z,100470.19
2023-02-27T03:09:00.178Z,100473.59
2023-02-27T03:11:29.695Z,100473.97
2023-02-27T03:14:04.408Z,100480.69
2023-02-27T03:16:44.133Z,100483.25
2023-02-27T03:19:27.386Z,100492.44
2023-02-27T03:22:00.589Z,100499.84
2023-02-27T03:24:49.974Z,100493.78
2023-02-27T03:27:18.362Z,100494.84
2023-02-27T03:30:10.434Z,100498.66
2023-02-27T03:32:45.938Z,100497.03
2023-02-27T03:35:13.177Z,100506.06
2023-02-27T03:37:48.097Z,100504.72
2023-02-27T03:40:36.178Z,100502.28
2023-02-27T03:43:21.036Z,100508.50
2023-02-27T03:46:12.489Z,100507.78
2023-02-27T03:48:44.518Z,100514.41
2023-02-27T03:51:14.321Z,100522.09
2023-02-27T03:53:51.522Z,100515.78
2023-02-27T03:56:24.951Z,100526.00
2023-02-27T03:58:52.333Z,100527.34
2023-02-27T04:01:19.407Z,100522.94
2023-02-27T04:03:53.402Z,100523.72
2023-02-27T04:06:38.854Z,100527.47
2023-02-27T04:09:16.782Z,100519.16
2023-02-27T04:12:06.797Z,100521.72
2023-02-27T04:14:52.345Z,100530.09
2023-02-27T04:17:24.553Z,100524.69
2023-02-27T04:19:59.863Z,100531.41
2023-02-27T04:22:39.815Z,100532.78
2023-02-27T04:25:44.536Z,100530.50
2023-02-27T04:28:40.463Z,100534.81
2023-02-27T04:31:14.193Z,100533.44
2023-02-27T04:34:01.625Z,100538.84
2023-02-27T04:36:38.598Z,100539.34
2023-02-27T04:39:08.803Z,100539.66
2023-02-27T04:41:43.437Z,100538.16
2023-02-27T04:44:12.587Z,100540.31
2023-02-27T04:46:42.896Z,100541.09
2023-02-27T04:49:15.775Z,100540.84
2023-02-27T04:51:52.412Z,100544.72
2023-02-27T04:54:27.022Z,100549.19
2023-02-27T04:57:02.277Z,100550.75
2023-02-27T04:59:34.109Z,100562.37
2023-02-27T05:02:11.368Z,100568.25
2023-02-27T05:04:40.469Z,100569.31
2023-02-27T05:07:10.398Z,100569.81
2023-02-27T05:09:52.372Z,100572.56
2023-02-27T05:12:26.860Z,100571.06
2023-02-27T05:15:27.153Z,100582.09
2023-02-27T05:18:02.509Z,100578.84
2023-02-27T05:20:55.738Z,100594.06
2023-02-27T05:23:32.296Z,100590.97
2023-02-27T05:26:08.681Z,100595.59
2023-02-27T05:28:41.980Z,100599.50
2023-02-27T05:31:34.338Z,100596.53
2023-02-27T05:34:45.451Z,100601.78
2023-02-27T05:37:21.282Z,100605.97
2023-02-27T05:39:52.009Z,100614.06
2023-02-27T05:42:27.012Z,100615.28
2023-02-27T05:45:00.304Z,100615.09
2023-02-27T05:47:31.057Z,100610.72
2023-02-27T05:50:11.843Z,100616.47
2023-02-27T05:52:41.197Z,100620.94
2023-02-27T05:55:34.152Z,100627.84
2023-02-27T05:58:06.789Z,100637.03
2023-02-27T06:00:45.404Z,100638.09
2023-02-27T06:03:12.729Z,100639.22
2023-02-27T06:05:42.120Z,100648.09
2023-02-27T06:08:09.683Z,100646.91
2023-02-27T06:10:37.131Z,100651.50
2023-02-27T06:13:04.315Z,100658.78
2023-02-27T06:15:30.908Z,100671.19
2023-02-27T06:17:57.941Z,100669.56
2023-02-27T06:20:24.582Z,100681.19
2023-02-27T06:22:51.302Z,100679.97
2023-02-27T06:25:18.151Z,100681.91
2023-02-27T06:27:44.789Z,100691.06
2023-02-27T06:30:11.985Z,100701.91
2023-02-27T06:32:38.564Z,100702.72
2023-02-27T06:35:06.476Z,100708.41
2023-02-27T06:37:33.306Z,100715.19
2023-02-27T06:40:00.027Z,100724.66
2023-02-27T06:42:26.638Z,100725.25
2023-02-27T06:44:53.278Z,100729.28
2023-02-27T06:47:19.872Z,100730.41
2023-02-27T06:49:46.499Z,100738.22
2023-02-27T06:52:13.123Z,100744.31
2023-02-27T06:54:39.776Z,100739.03
2023-02-27T06:57:06.522Z,100738.41
2023-02-27T06:59:33.150Z,100743.69
2023-02-27T07:02:00.603Z,100760.34
2023-02-27T07:04:27.279Z,100750.28
2023-02-27T07:07:35.609Z,100746.25
2023-02-27T07:09:40.611Z,100751.41
2023-02-27T07:12:08.039Z,100755.28
2023-02-27T07:14:35.013Z,100760.28
2023-02-27T07:17:04.512Z,100764.84
2023-02-27T07:19:33.768Z,100762.84
2023-02-27T07:22:00.363Z,100757.19
2023-02-27T07:24:26.941Z,100772.91
2023-02-27T07:26:54.026Z,100770.34
2023-02-27T07:29:20.730Z,100774.56
2023-02-27T07:31:48.061Z,100774.59
2023-02-27T07:34:15.644Z,100770.38
2023-02-27T07:36:42.513Z,100783.88
2023-02-27T07:39:10.709Z,100779.22
2023-02-27T07:41:37.322Z,100785.97
2023-02-27T07:44:04.043Z,100781.56
2023-02-27T07:46:31.129Z,100778.78
2023-02-27T07:48:57.882Z,100784.75
2023-02-27T07:51:24.534Z,100782.87
2023-02-27T07:53:51.128Z,100780.16
2023-02-27T07:56:17.746Z,100779.63
2023-02-27T07:58:44.414Z,100782.13
2023-02-27T08:01:11.092Z,100785.87
2023-02-27T08:03:37.669Z,100796.94
2023-02-27T08:06:04.330Z,100795.66
2023-02-27T08:08:30.938Z,100799.31
2023-02-27T08:10:57.624Z,100799.66
2023-02-27T08:13:48.565Z,100806.75
2023-02-27T08:16:11.524Z,100806.91
2023-02-27T08:18:38.164Z,100806.37
2023-02-27T08:21:05.307Z,100815.59
2023-02-27T08:23:34.560Z,100815.63
2023-02-27T08:26:02.454Z,100823.94
2023-02-27T08:28:29.771Z,100823.56
2023-02-27T08:30:56.647Z,100836.87
2023-02-27T08:33:24.160Z,100842.97
2023-02-27T08:35:50.849Z,100839.06
2023-02-27T08:38:17.535Z,100840.47
2023-02-27T08:40:44.212Z,100852.38
2023-02-27T08:43:10.809Z,100854.31
2023-02-27T08:45:37.497Z,100856.53
2023-02-27T08:48:04.396Z,100866.59
2023-02-27T08:50:30.980Z,100860.50
2023-02-27T08:52:57.578Z,100853.19
2023-02-27T08:55:24.177Z,100854.56
2023-02-27T08:57:50.810Z,100865.06
2023-02-27T09:00:17.946Z,100865.38
2023-02-27T09:02:44.695Z,100872.44
2023-02-27T09:05:11.462Z,100867.59
2023-02-27T09:07:38.089Z,100859.09
2023-02-27T09:10:05.762Z,100863.00
2023-02-27T09:12:32.352Z,100870.13
2023-02-27T09:14:58.927Z,100870.13
2023-02-27T09:17:25.531Z,100877.44
2023-02-27T09:19:52.151Z,100874.81
2023-02-27T09:22:19.998Z,100882.91
2023-02-27T09:24:46.623Z,100883.63
2023-02-27T09:27:13.269Z,100880.13
2023-02-27T09:29:39.882Z,100883.88
2023-02-27T09:32:06.758Z,100889.25
2023-02-27T09:34:33.682Z,100883.28
2023-02-27T09:37:01.212Z,100887.09
2023-02-27T09:39:29.091Z,100880.13
2023-02-27T09:42:11.636Z,100877.59
2023-02-27T09:45:02.205Z,100875.59
2023-02-27T09:47:44.590Z,100871.59
2023-02-27T09:50:39.416Z,100879.38
2023-02-27T09:53:11.713Z,100884.53
2023-02-27T09:55:41.819Z,100889.50
2023-02-27T09:58:31.179Z,100880.53
2023-02-27T10:01:13.105Z,100883.88
2023-02-27T10:04:04.592Z,100886.84
2023-02-27T10:06:38.131Z,100893.72
2023-02-27T10:09:23.559Z,100909.06
2023-02-27T10:12:02.236Z,100886.47
2023-02-27T10:14:55.165Z,100891.25
2023-02-27T10:17:56.081Z,100887.59
2023-02-27T10:20:28.080Z,100895.50
2023-02-27T10:22:57.754Z,100892.28
2023-02-27T10:25:31.664Z,100895.56
2023-02-27T10:28:11.183Z,100886.78
2023-02-27T10:30:38.219Z,100882.22
2023-02-27T10:33:29.371Z,100873.63
2023-02-27T10:35:56.078Z,100882.25
2023-02-27T10:38:27.022Z,100884.94
2023-02-27T10:40:55.634Z,100879.03
2023-02-27T16:12:51.471Z,101046.09
2023-02-27T16:15:29.339Z,101046.09
2023-02-27T16:18:16.081Z,101054.59
2023-02-27T16:20:58.222Z,101054.69
2023-02-27T16:23:27.765Z,101059.06
2023-02-27T16:26:15.550Z,101066.75
2023-02-27T16:28:51.232Z,101062.00
2023-02-27T16:31:39.368Z,101079.12
2023-02-27T16:34:15.397Z,101081.13
2023-02-27T16:36:51.891Z,101086.03
2023-02-27T16:39:18.490Z,101095.25
2023-02-27T16:41:45.059Z,101100.31
2023-02-27T16:44:12.013Z,101091.72
2023-02-27T16:46:38.744Z,101105.28
2023-02-27T16:49:19.214Z,101110.66
2023-02-27T16:51:46.506Z,101108.69
2023-02-27T16:54:14.036Z,101122.19
2023-02-27T16:56:41.131Z,101121.09
2023-02-27T16:59:07.915Z,101119.81
2023-02-27T17:01:34.812Z,101131.41
2023-02-27T17:04:01.771Z,101134.87
2023-02-27T17:06:28.784Z,101131.03
2023-02-27T17:08:56.136Z,101134.84
2023-02-27T17:11:22.945Z,101140.44
2023-02-27T17:13:49.563Z,101138.00
2023-02-27T17:16:16.205Z,101144.31
2023-02-27T17:18:42.831Z,101148.31
2023-02-27T17:21:09.465Z,101149.34
2023-02-27T17:23:36.037Z,101151.91
2023-02-27T17:26:02.690Z,101152.41
2023-02-27T17:28:29.346Z,101156.97
2023-02-27T17:30:56.027Z,101160.75
2023-02-27T17:33:22.628Z,101158.16
2023-02-27T17:35:49.370Z,101157.75
2023-02-27T17:38:15.989Z,101156.81
2023-02-27T17:40:42.614Z,101158.75
2023-02-27T17:43:09.197Z,101165.91
2023-02-27T17:45:35.801Z,101159.44
2023-02-27T17:48:02.385Z,101166.19
2023-02-27T17:50:29.075Z,101163.06
2023-02-27T17:52:55.654Z,101177.06
2023-02-27T17:55:22.313Z,101177.66
2023-02-27T17:57:49.006Z,101180.78
2023-02-27T18:00:15.848Z,101172.84
2023-02-27T18:02:45.510Z,101185.59
2023-02-27T18:05:12.316Z,101198.09
2023-02-27T18:07:39.452Z,101215.94
2023-02-27T18:10:09.217Z,101224.66
2023-02-27T18:12:36.858Z,101220.69
2023-02-27T18:15:04.335Z,101215.25
2023-02-27T18:17:30.979Z,101212.28
2023-02-27T18:20:01.478Z,101213.81
2023-02-27T18:22:30.081Z,101219.84
2023-02-27T18:24:59.195Z,101210.06
2023-02-27T18:27:28.497Z,101216.41
2023-02-27T18:29:57.607Z,101214.78
2023-02-27T18:32:27.065Z,101220.47
2023-02-27T18:34:54.134Z,101214.28
2023-02-27T18:37:20.790Z,101221.62
2023-02-27T18:39:47.432Z,101228.84
2023-02-27T18:42:14.121Z,101226.25
2023-02-27T18:44:41.460Z,101228.34
2023-02-27T18:47:08.099Z,101231.41
2023-02-27T18:49:39.426Z,101243.41
2023-02-27T18:52:06.067Z,101247.72
2023-02-27T18:54:33.723Z,101246.97
2023-02-27T18:57:01.122Z,101252.72
2023-02-27T18:59:28.669Z,101255.53
2023-02-27T19:01:56.918Z,101260.78
2023-02-27T19:19:19.204Z,101292.56
2023-02-27T19:21:51.544Z,101298.37
2023-02-27T19:24:18.129Z,101300.00
2023-02-27T19:26:44.700Z,101299.59
2023-02-27T19:29:11.390Z,101302.72
2023-02-27T19:31:38.118Z,101302.31
2023-02-27T19:34:04.874Z,101300.50
2023-02-27T19:36:31.850Z,101294.63
2023-02-27T19:38:58.714Z,101295.97
2023-02-27T19:41:25.362Z,101285.75
2023-02-27T19:43:52.323Z,101271.84
2023-02-27T19:46:24.855Z,101281.75
2023-02-27T19:48:53.047Z,101283.06
2023-02-27T19:51:21.138Z,101289.44
2023-02-27T19:53:50.777Z,101298.41
2023-02-27T19:56:19.874Z,101297.22
2023-02-27T19:58:48.127Z,101306.88
2023-02-27T20:01:29.121Z,101316.50
2023-02-27T20:03:56.058Z,101318.34
2023-02-27T20:06:26.212Z,101321.31
2023-02-27T20:08:54.441Z,101332.78
2023-02-27T20:11:21.814Z,101338.53
2023-02-27T20:13:51.527Z,101352.44
2023-02-27T20:16:22.260Z,101351.19
2023-02-27T20:18:49.966Z,101348.47
2023-02-27T20:21:19.419Z,101334.84
2023-02-27T20:23:47.345Z,101335.16
2023-02-27T20:26:15.203Z,101338.56
2023-02-27T20:28:42.084Z,101346.03
2023-02-27T20:31:12.958Z,101327.91
2023-02-27T20:33:40.716Z,101334.06
2023-02-27T20:36:11.049Z,101336.13
2023-02-27T20:38:39.160Z,101340.91
2023-02-27T20:41:07.622Z,101342.84
2023-02-27T20:43:34.273Z,101351.25
2023-02-27T20:46:10.003Z,101361.16
2023-02-27T20:48:36.604Z,101358.72
2023-02-27T20:51:09.962Z,101357.19
2023-02-27T20:53:39.197Z,101360.97
2023-02-27T20:56:06.250Z,101368.75
2023-02-27T20:58:33.633Z,101363.84
2023-02-27T21:01:04.318Z,101363.13
2023-02-27T21:03:38.514Z,101360.28
2023-02-27T21:06:06.799Z,101366.72
2023-02-27T21:08:36.535Z,101368.56
2023-02-27T21:11:13.019Z,101363.88
2023-02-27T21:13:40.086Z,101372.44
2023-02-27T21:16:09.436Z,101363.53
2023-02-27T21:18:37.340Z,101366.91
2023-02-27T21:21:08.896Z,101378.28
2023-02-27T21:23:42.885Z,101383.38
2023-02-27T21:26:16.387Z,101375.31
2023-02-27T21:28:47.765Z,101380.13
2023-02-27T21:31:15.965Z,101388.59
2023-02-27T21:33:43.085Z,101392.97
2023-02-27T21:36:10.590Z,101386.63
2023-02-27T21:38:38.842Z,101387.13
2023-02-27T21:41:11.923Z,101378.66
2023-02-27T21:43:40.488Z,101380.19
2023-02-27T21:46:11.550Z,101385.59
2023-02-27T21:48:39.403Z,101390.78
2023-02-27T21:51:07.163Z,101394.41
2023-02-27T21:53:33.982Z,101393.28
2023-02-27T21:56:09.042Z,101400.13
2023-02-27T21:58:36.072Z,101399.44
2023-02-27T22:01:15.330Z,101401.75
2023-02-27T22:03:47.324Z,101383.66
2023-02-27T22:06:15.303Z,101382.34
2023-02-27T22:08:42.301Z,101388.69
2023-02-27T22:11:09.835Z,101382.03
2023-02-27T22:13:37.380Z,101384.88
2023-02-27T22:16:08.604Z,101392.16
2023-02-27T22:18:36.420Z,101394.62
2023-02-27T22:21:07.152Z,101388.97
2023-02-27T22:23:33.767Z,101392.50
2023-02-27T22:26:07.373Z,101405.25
2023-02-27T22:28:34.861Z,101397.22
2023-02-27T22:31:09.022Z,101397.31
2023-02-27T22:33:36.490Z,101392.59
2023-02-27T22:36:24.173Z,101391.81
2023-02-27T22:38:51.474Z,101400.53
2023-02-27T22:41:24.700Z,101399.97
2023-02-27T22:43:51.709Z,101397.19
2023-02-27T22:46:26.103Z,101404.47
2023-02-27T22:48:56.987Z,101412.53
2023-02-27T22:51:25.410Z,101411.81
2023-02-27T22:53:52.184Z,101408.72
2023-02-27T22:56:18.771Z,101409.47
2023-02-27T22:58:45.916Z,101406.16
2023-02-27T23:01:16.939Z,101400.00
2023-02-27T23:03:45.709Z,101408.69
2023-02-27T23:06:18.356Z,101416.59
2023-02-27T23:08:45.035Z,101402.97
2023-02-27T23:11:13.172Z,101409.22
2023-02-27T23:13:39.773Z,101407.22
2023-02-27T23:16:11.549Z,101413.78
2023-02-27T23:18:42.155Z,101406.72
2023-02-27T23:21:09.933Z,101404.81
2023-02-27T23:23:36.637Z,101405.41
2023-02-27T23:26:04.111Z,101410.94
2023-02-27T23:28:30.793Z,101403.41
2023-02-27T23:30:57.781Z,101403.81
2023-02-27T23:33:24.336Z,101405.00
2023-02-27T23:35:51.894Z,101409.63
2023-02-27T23:38:18.772Z,101414.72
2023-02-27T23:40:45.377Z,101416.19
2023-02-27T23:43:11.971Z,101428.75
2023-02-27T23:45:39.026Z,101428.53
2023-02-27T23:48:06.104Z,101425.69
2023-02-27T23:50:35.413Z,101436.72
2023-02-27T23:53:02.152Z,101430.06
2023-02-27T23:55:30.577Z,101441.41
2023-02-27T23:58:00.374Z,101438.34
